Decoded Metar for PAMD (MIDDLETON ISLAND in AK, USA) (IATA:N/A) | Meteo·Mobile Aviation Weather
aviador You're here:

PAMD Decoded Metar

MIDDLETON ISLAND in AK, USA
Report Time2018-12-14 12:51:00
UTC Time2018-12-14 13:24:48
Flight Rules vfr VFR
Wind230° at 18 Gusting to 25 kt
W.Decomp.*RWY 20: 17.6 kt HW 3.7 kt RCW
RWY 13: 2.5 kt HW 17.8 kt RCW
W.Rank230° ranks 19
Current wind is above 230° avg. (8.8)
Visibility9999 m
Phenomena:N/A
Clouds:Few 037 Hf
Expected CloudBase > 2,400 ft AGL from Temp-Dew spread
CeilingNone
Temp03°C (ISA -12)
Dew Point-3°C (65% RH)
AAT-5.9°C
QNH994 hPa
Density Alt-679 ft
Elevation46 ft
Report Wrong Elevation
Raw Report
PAMD 141251Z AUTO 23018G25KT 10SM FEW037 03/M03 A2934 RMK AO2
SLP925 T00281033=

Extra information for PAMD:More info

Metar Taf Metar & Taf Last 4 Metars F.Rules Stats Wind Profile Meteogram Temp Stats Airport Information Weather charts Add Link Nearby VenuesMetar ALERT Operation Metar Decoded Social comments

AIRNAV info for PAMD